KLGB/LGB METAR and TAF weather

Enter ICAO airport designator
Station Type Date Time Source
KLGB METAR 2019/06/17 13:53 UTC NOAA

KLGB 171353Z 20005KT 10SM OVC019 18/13 A2988 RMK AO2 SLP116 T01780133


Station Type Date Time Source
KLGB Decoded METAR 2019/06/17 13:53 UTC NOAA

LONG BEACH AIRPORT, CA, United States (KLGB) 33-49N 118-09W 10M
Jun 17, 2019 - 09:53 AM EDT / 2019.06.17 1353 UTC
Wind: from the SSW (200 degrees) at 6 MPH (5 KT):0
Visibility: 10 mile(s):0
Sky conditions: overcast
Temperature: 64.0 F (17.8 C)
Dew Point: 55.9 F (13.3 C)
Relative Humidity: 74%
Pressure (altimeter): 29.88 in. Hg (1011 hPa)
ob: KLGB 171353Z 20005KT 10SM OVC019 18/13 A2988 RMK AO2 SLP116 T01780133
cycle: 14

Station Type Date Time Source
KLGB TAF 2019/06/17 12:33 UTC NOAA

TAF KLGB 171131Z 1712/1812 VRB03KT P6SM OVC017
FM171800 19008KT P6SM BKN022
FM172300 30008KT P6SM SCT025
FM180400 VRB03KT P6SM OVC018

Example: see airport list